Time;durP1;ratioP1;P1;durP2;ratioP2;P2;SDS_P1;SDS_P2;PMS_P1;PMS_P2;Temp;Humidity;BMP_temperature;BMP_pressure;BME280_temperature;BME280_humidity;BME280_pressure;Samples;Min_cycle;Max_cycle;Signal;HPM_P1;HPM_P2
2022/01/06 00:00:32;;;;;;;10.00;6.78;;;;;;;6.57;78.23;93156.87;1736962;82;20994;-54
2022/01/06 00:02:59;;;;;;;12.85;7.37;;;;;;;6.64;77.97;93152.44;1734633;82;20983;-54
2022/01/06 00:05:25;;;;;;;13.28;7.15;;;;;;;6.67;77.80;93156.23;1696411;82;21537;-54
2022/01/06 00:07:52;;;;;;;15.65;8.78;;;;;;;6.67;77.79;93156.23;1719542;82;20991;-54
2022/01/06 00:10:19;;;;;;;17.02;8.83;;;;;;;6.69;78.01;93167.45;1708038;82;21130;-53
2022/01/06 00:16:07;;;;;;;15.58;9.50;;;;;;;6.95;77.35;93161.73;1726089;82;21076;-54
2022/01/06 00:25:53;;;;;;;23.90;14.35;;;;;;;6.87;77.57;93149.63;1740655;82;20940;-54
2022/01/06 00:28:19;;;;;;;17.42;9.43;;;;;;;6.91;77.21;93169.34;1727363;82;20993;-54
2022/01/06 00:30:46;;;;;;;15.93;9.63;;;;;;;6.88;76.88;93177.11;1713612;82;20970;-53
2022/01/06 00:33:13;;;;;;;15.50;10.50;;;;;;;6.92;76.85;93177.69;1737721;82;20967;-54
2022/01/06 00:35:40;;;;;;;11.00;8.25;;;;;;;6.95;76.79;93182.23;1698393;81;21199;-54
2022/01/06 00:38:07;;;;;;;10.95;7.00;;;;;;;6.94;76.63;93171.92;1698905;82;21938;-55
2022/01/06 00:40:36;;;;;;;5.10;4.28;;;;;;;6.98;76.63;93139.70;1729906;82;20991;-55
2022/01/06 00:43:05;;;;;;;4.55;4.15;;;;;;;6.93;76.41;93149.14;1731602;82;21549;-55
2022/01/06 00:45:37;;;;;;;3.92;3.50;;;;;;;6.83;76.46;93166.78;1723848;82;21292;-54
2022/01/06 00:48:10;;;;;;;3.20;3.00;;;;;;;6.82;76.43;93183.03;1727097;82;21172;-54
2022/01/06 00:50:35;;;;;;;4.10;3.80;;;;;;;6.78;75.82;93172.88;1723739;81;20959;-54
2022/01/06 00:53:04;;;;;;;3.12;2.92;;;;;;;6.70;75.94;93168.97;1704602;82;21041;-54
2022/01/06 00:55:33;;;;;;;4.53;3.90;;;;;;;6.65;75.74;93184.00;1734251;81;21068;-54
2022/01/06 00:58:05;;;;;;;5.30;3.98;;;;;;;6.65;75.72;93192.20;1739090;82;20936;-54
2022/01/06 01:00:42;;;;;;;7.62;4.55;;;;;;;6.66;75.96;93183.41;1721365;82;21142;-54
2022/01/06 01:03:04;;;;;;;12.45;6.25;;;;;;;6.72;76.18;93177.45;1727706;82;21002;-54
2022/01/06 01:05:37;;;;;;;12.43;7.25;;;;;;;6.76;76.06;93183.52;1724459;82;21135;-53
2022/01/06 01:08:07;;;;;;;11.33;6.45;;;;;;;6.80;75.83;93192.30;1720032;82;21011;-54
2022/01/06 01:10:35;;;;;;;19.07;8.45;;;;;;;6.77;75.80;93186.39;1729085;82;20991;-55
2022/01/06 01:13:02;;;;;;;33.70;16.25;;;;;;;6.75;75.73;93188.83;1725776;81;21135;-54
2022/01/06 01:15:31;;;;;;;25.52;12.68;;;;;;;6.66;75.85;93197.06;1716493;82;21016;-54
2022/01/06 01:18:05;;;;;;;19.27;10.40;;;;;;;6.65;76.40;93200.98;1695988;82;21010;-54
2022/01/06 01:20:26;;;;;;;16.23;9.95;;;;;;;6.71;76.30;93190.97;1723555;81;21011;-55
2022/01/06 01:22:55;;;;;;;31.57;15.48;;;;;;;6.70;76.35;93193.56;1731739;81;20990;-54
2022/01/06 01:25:21;;;;;;;31.10;15.40;;;;;;;6.79;76.38;93196.25;1705541;82;21105;-54
2022/01/06 01:27:54;;;;;;;21.60;12.70;;;;;;;6.82;76.08;93194.73;1722823;81;21059;-54
2022/01/06 01:30:20;;;;;;;20.82;11.20;;;;;;;6.75;75.91;93187.47;1717275;81;20998;-54
2022/01/06 01:32:51;;;;;;;25.50;13.88;;;;;;;6.69;76.36;93192.05;1702696;82;21049;-54
2022/01/06 01:35:20;;;;;;;53.92;25.95;;;;;;;6.76;76.49;93188.98;1705053;82;21061;-54
2022/01/06 01:37:54;;;;;;;26.73;15.28;;;;;;;6.75;76.35;93190.20;1728828;82;20944;-55
2022/01/06 01:40:20;;;;;;;55.85;23.80;;;;;;;6.68;76.66;93185.06;1732650;82;21471;-53
2022/01/06 01:42:50;;;;;;;30.68;16.12;;;;;;;6.71;76.77;93184.88;1665317;84;21052;-54
2022/01/06 01:45:17;;;;;;;26.35;13.93;;;;;;;6.74;76.69;93185.95;1705284;82;21014;-54
2022/01/06 01:47:45;;;;;;;20.02;11.48;;;;;;;6.70;76.59;93188.09;1726831;82;21034;-54
2022/01/06 01:50:20;;;;;;;30.77;15.00;;;;;;;6.63;76.86;93180.97;1724746;82;21157;-53
2022/01/06 01:52:56;;;;;;;29.12;12.70;;;;;;;6.62;77.05;93181.42;1719793;81;20980;-54
2022/01/06 01:55:30;;;;;;;44.38;19.55;;;;;;;6.67;76.96;93191.75;1728286;82;21459;-53
2022/01/06 01:57:57;;;;;;;35.35;15.78;;;;;;;6.78;76.87;93183.80;1729913;82;21059;-54
2022/01/06 02:00:27;;;;;;;31.37;13.88;;;;;;;6.78;76.48;93201.56;1728095;82;21063;-53
2022/01/06 02:02:54;;;;;;;29.40;14.70;;;;;;;6.68;76.67;93191.27;1712106;82;21085;-54
2022/01/06 02:05:30;;;;;;;18.92;10.68;;;;;;;6.63;76.55;93202.83;1669511;84;21104;-53
2022/01/06 02:07:52;;;;;;;12.30;8.43;;;;;;;6.56;76.18;93191.46;1721567;81;20999;-53
2022/01/06 02:10:20;;;;;;;14.15;9.53;;;;;;;6.50;76.50;93191.94;1722022;82;20987;-53
2022/01/06 02:12:49;;;;;;;19.50;12.47;;;;;;;6.54;76.82;93199.36;1729553;81;21069;-54
2022/01/06 02:15:16;;;;;;;14.43;9.95;;;;;;;6.64;76.71;93193.41;1730615;81;21146;-54
2022/01/06 02:17:44;;;;;;;12.10;8.83;;;;;;;6.64;76.16;93194.78;1731322;82;20994;-55
2022/01/06 02:20:14;;;;;;;31.17;16.37;;;;;;;6.60;76.22;93190.69;1718932;82;21062;-54
2022/01/06 02:22:41;;;;;;;32.88;18.37;;;;;;;6.62;76.11;93199.17;1735323;81;21065;-54
2022/01/06 02:25:30;;;;;;;50.23;22.98;;;;;;;6.58;76.11;93199.36;1732423;82;21090;-54
2022/01/06 02:28:00;;;;;;;30.43;14.98;;;;;;;6.60;75.96;93198.88;1728060;82;21823;-54
2022/01/06 02:30:27;;;;;;;42.78;20.25;;;;;;;6.58;76.13;93192.53;1725637;82;21011;-54
2022/01/06 02:32:55;;;;;;;42.88;19.55;;;;;;;6.53;76.37;93195.12;1730605;82;21023;-54
2022/01/06 02:35:24;;;;;;;45.05;21.57;;;;;;;6.47;76.67;93208.63;1720061;82;20967;-54
2022/01/06 02:37:51;;;;;;;20.43;11.78;;;;;;;6.52;77.31;93208.00;1725405;82;21065;-55
2022/01/06 02:40:21;;;;;;;18.95;11.33;;;;;;;6.60;76.81;93203.75;1736251;82;21130;-54
2022/01/06 02:42:52;;;;;;;20.30;10.70;;;;;;;6.58;76.79;93217.11;1735169;82;21038;-54
2022/01/06 02:45:20;;;;;;;16.42;9.40;;;;;;;6.60;76.84;93209.22;1703410;81;21054;-54
2022/01/06 02:47:48;;;;;;;12.78;8.40;;;;;;;6.64;76.55;93203.57;1731411;82;20999;-54
2022/01/06 02:50:16;;;;;;;12.80;7.55;;;;;;;6.65;76.26;93204.48;1728926;81;21532;-55
2022/01/06 02:52:42;;;;;;;8.58;5.20;;;;;;;6.64;75.54;93200.24;1694201;82;21146;-55
2022/01/06 02:55:12;;;;;;;13.62;7.62;;;;;;;6.57;75.23;93210.14;1740715;82;20978;-54
2022/01/06 02:57:41;;;;;;;13.43;7.97;;;;;;;6.51;75.27;93218.03;1724688;82;20956;-54
2022/01/06 03:00:11;;;;;;;12.37;8.08;;;;;;;6.47;75.46;93207.85;1721639;81;21096;-54
2022/01/06 03:02:38;;;;;;;8.55;6.50;;;;;;;6.41;75.45;93219.25;1719462;82;21029;-54
2022/01/06 03:05:15;;;;;;;18.20;12.75;;;;;;;6.39;75.76;93215.63;1737062;82;21566;-54
2022/01/06 03:07:42;;;;;;;14.58;9.78;;;;;;;6.35;75.69;93215.00;1732095;82;20943;-54
2022/01/06 03:10:14;;;;;;;10.95;8.88;;;;;;;6.30;75.74;93208.05;1726663;82;20966;-54
2022/01/06 03:12:40;;;;;;;14.58;9.38;;;;;;;6.23;75.75;93217.91;1733753;82;20995;-54
2022/01/06 03:15:09;;;;;;;16.23;9.73;;;;;;;6.20;75.99;93222.32;1736184;81;21019;-54
2022/01/06 03:17:38;;;;;;;17.35;9.80;;;;;;;6.13;76.20;93214.42;1724910;82;21154;-54
2022/01/06 03:20:06;;;;;;;20.30;9.53;;;;;;;6.07;76.56;93228.53;1723604;82;21053;-54
2022/01/06 03:22:33;;;;;;;11.80;7.67;;;;;;;6.04;77.02;93232.77;1713627;82;20954;-54
2022/01/06 03:25:00;;;;;;;12.73;7.10;;;;;;;6.02;76.98;93239.29;1708160;82;20967;-54
2022/01/06 03:27:26;;;;;;;11.40;7.67;;;;;;;5.95;77.04;93247.16;1730348;82;21001;-53
2022/01/06 03:29:53;;;;;;;7.53;5.37;;;;;;;5.90;77.60;93251.09;1723482;82;21148;-53
2022/01/06 03:32:20;;;;;;;5.25;4.75;;;;;;;5.97;77.90;93250.81;1727960;82;20939;-54
2022/01/06 03:34:46;;;;;;;10.08;6.17;;;;;;;6.08;77.30;93253.84;1730231;82;21027;-54
2022/01/06 03:37:15;;;;;;;118.02;68.57;;;;;;;6.02;76.62;93256.44;1723784;82;21518;-55
2022/01/06 03:39:47;;;;;;;33.65;22.40;;;;;;;5.94;76.20;93264.01;1728156;82;20947;-54
2022/01/06 03:42:13;;;;;;;14.23;8.98;;;;;;;5.85;75.72;93262.62;1737225;82;21432;-54
2022/01/06 03:44:40;;;;;;;26.23;11.15;;;;;;;5.68;75.30;93255.30;1708900;82;21086;-54
2022/01/06 03:47:07;;;;;;;39.13;14.83;;;;;;;5.51;75.50;93256.77;1711501;82;21003;-53
2022/01/06 03:49:33;;;;;;;17.57;9.53;;;;;;;5.42;75.44;93262.19;1721051;82;21424;-53
2022/01/06 03:52:00;;;;;;;12.07;6.97;;;;;;;5.35;75.44;93258.39;1725565;81;21130;-54
2022/01/06 03:54:26;;;;;;;12.70;7.20;;;;;;;5.29;75.31;93263.51;1705872;82;21141;-54
2022/01/06 03:56:53;;;;;;;24.40;14.00;;;;;;;5.21;75.02;93263.64;1690567;82;21090;-54
2022/01/06 03:59:24;;;;;;;11.10;7.67;;;;;;;5.15;75.02;93253.16;1680802;82;21085;-55
2022/01/06 04:01:51;;;;;;;10.20;7.22;;;;;;;5.05;74.99;93244.02;1715485;82;21003;-53
2022/01/06 04:04:17;;;;;;;11.20;9.00;;;;;;;4.92;74.99;93253.66;1724555;81;21092;-53
2022/01/06 04:06:44;;;;;;;24.25;17.42;;;;;;;4.83;75.12;93253.60;1717485;81;22011;-55
2022/01/06 04:09:11;;;;;;;28.70;16.65;;;;;;;4.75;74.95;93256.45;1705190;82;20991;-53
2022/01/06 04:11:38;;;;;;;20.45;12.45;;;;;;;4.62;74.71;93267.27;1718480;81;21025;-54
2022/01/06 04:14:04;;;;;;;11.50;8.30;;;;;;;4.51;75.01;93278.55;1720511;82;21030;-54
2022/01/06 04:16:35;;;;;;;11.95;7.67;;;;;;;4.47;74.74;93280.65;1707257;82;20959;-53
2022/01/06 04:18:59;;;;;;;10.88;6.45;;;;;;;4.38;74.71;93273.77;1718195;82;21250;-54
2022/01/06 04:21:28;;;;;;;12.13;8.13;;;;;;;4.31;74.51;93272.66;1701933;82;21042;-54
2022/01/06 04:23:56;;;;;;;7.95;6.53;;;;;;;4.24;74.70;93275.62;1720265;82;21042;-54
2022/01/06 04:26:23;;;;;;;6.97;5.85;;;;;;;4.21;74.78;93292.09;1723611;81;20979;-54
2022/01/06 04:28:51;;;;;;;9.20;7.37;;;;;;;4.15;74.75;93296.56;1717663;82;20956;-54
2022/01/06 04:31:18;;;;;;;78.35;33.88;;;;;;;4.08;74.90;93297.56;1733091;82;21167;-54
2022/01/06 04:33:44;;;;;;;32.23;16.67;;;;;;;4.09;74.90;93301.05;1724734;82;21518;-53
2022/01/06 04:36:11;;;;;;;20.77;10.98;;;;;;;4.04;74.69;93305.09;1718454;82;20991;-54
2022/01/06 04:38:37;;;;;;;27.22;13.58;;;;;;;4.01;74.93;93314.13;1720439;82;21548;-54
2022/01/06 04:41:04;;;;;;;14.45;9.05;;;;;;;3.97;74.76;93317.58;1718997;82;21026;-54
2022/01/06 04:43:31;;;;;;;13.25;8.23;;;;;;;3.95;74.81;93328.14;1740763;82;22424;-54
2022/01/06 04:46:02;;;;;;;9.78;7.28;;;;;;;3.93;74.62;93329.77;1729364;81;21061;-53
2022/01/06 04:48:29;;;;;;;17.50;9.28;;;;;;;3.89;74.76;93344.84;1707486;82;21415;-53
2022/01/06 04:50:56;;;;;;;9.38;7.40;;;;;;;3.86;74.85;93344.36;1724967;82;20994;-54
2022/01/06 04:53:24;;;;;;;12.30;8.50;;;;;;;3.89;75.12;93348.17;1720589;82;21576;-54
2022/01/06 04:55:51;;;;;;;15.43;9.98;;;;;;;3.89;75.16;93350.89;1718196;82;21918;-54
2022/01/06 04:58:18;;;;;;;20.95;12.80;;;;;;;3.88;75.45;93354.81;1723858;82;21164;-53
2022/01/06 05:00:45;;;;;;;29.52;16.75;;;;;;;3.91;75.49;93353.94;1700019;82;21540;-54
2022/01/06 05:03:13;;;;;;;18.48;12.15;;;;;;;3.92;75.47;93356.81;1706273;81;21010;-54
2022/01/06 05:05:40;;;;;;;12.00;8.50;;;;;;;3.87;75.52;93354.66;1732240;82;20927;-53
2022/01/06 05:08:06;;;;;;;11.90;8.98;;;;;;;3.81;75.68;93359.88;1734151;82;21160;-54
2022/01/06 05:10:33;;;;;;;15.00;10.05;;;;;;;3.80;75.87;93352.14;1721423;82;20947;-54
2022/01/06 05:12:59;;;;;;;22.73;13.00;;;;;;;3.82;76.01;93361.98;1722238;82;21418;-54
2022/01/06 05:15:28;;;;;;;9.80;7.85;;;;;;;3.79;75.87;93365.58;1719685;82;20998;-52
2022/01/06 05:17:55;;;;;;;9.15;8.15;;;;;;;3.75;75.89;93358.91;1718335;82;21033;-54
2022/01/06 05:20:26;;;;;;;10.90;7.75;;;;;;;3.70;76.11;93367.60;1707504;82;21140;-56
2022/01/06 05:22:51;;;;;;;7.60;6.90;;;;;;;3.72;76.22;93352.97;1726226;82;20946;-57
2022/01/06 05:25:21;;;;;;;7.22;6.53;;;;;;;3.72;76.29;93365.81;1719692;81;21487;-57
2022/01/06 05:27:46;;;;;;;7.25;6.20;;;;;;;3.66;76.37;93368.31;1721157;81;20966;-56
2022/01/06 05:30:13;;;;;;;10.35;7.80;;;;;;;3.68;76.65;93372.72;1696385;82;20963;-53
2022/01/06 05:32:39;;;;;;;12.43;10.00;;;;;;;3.73;76.53;93368.70;1723274;82;21444;-52
2022/01/06 05:35:07;;;;;;;10.10;8.33;;;;;;;3.70;76.82;93368.96;1701068;81;21089;-52
2022/01/06 05:37:35;;;;;;;9.45;8.45;;;;;;;3.73;76.72;93377.60;1724440;82;21119;-53
2022/01/06 05:40:03;;;;;;;12.35;9.15;;;;;;;3.74;76.54;93381.88;1728600;82;21534;-53
2022/01/06 05:42:29;;;;;;;20.32;13.43;;;;;;;3.72;76.49;93382.88;1727586;82;21432;-53
2022/01/06 05:44:56;;;;;;;15.85;9.93;;;;;;;3.65;76.61;93383.11;1712462;82;21139;-54
2022/01/06 05:47:22;;;;;;;15.03;9.50;;;;;;;3.65;76.60;93387.19;1729081;82;21450;-52
2022/01/06 05:49:49;;;;;;;21.62;12.53;;;;;;;3.61;76.33;93379.75;1730236;82;20980;-54
2022/01/06 05:52:15;;;;;;;19.37;12.53;;;;;;;3.57;76.23;93387.26;1717823;82;21002;-53
2022/01/06 05:54:44;;;;;;;23.83;14.07;;;;;;;3.46;76.14;93390.73;1723616;81;21049;-53
2022/01/06 05:57:12;;;;;;;14.73;10.93;;;;;;;3.34;76.21;93396.91;1728210;82;21120;-54
2022/01/06 05:59:39;;;;;;;12.73;9.10;;;;;;;3.29;76.43;93405.61;1731005;82;20991;-54
2022/01/06 06:02:05;;;;;;;10.78;8.45;;;;;;;3.26;76.58;93410.55;1705815;82;21011;-53
2022/01/06 06:04:33;;;;;;;12.15;9.28;;;;;;;3.28;76.64;93413.59;1703312;82;20991;-54
2022/01/06 06:07:00;;;;;;;12.43;10.28;;;;;;;3.26;76.52;93420.06;1725205;82;21125;-54
2022/01/06 06:09:28;;;;;;;18.65;12.15;;;;;;;3.25;76.53;93400.87;1732395;82;21162;-54
2022/01/06 06:11:54;;;;;;;20.82;14.58;;;;;;;3.24;76.42;93402.82;1706527;82;21599;-54
2022/01/06 06:14:27;;;;;;;20.23;15.05;;;;;;;3.18;76.32;93398.35;1695885;82;21036;-53
2022/01/06 06:16:53;;;;;;;41.60;22.25;;;;;;;3.12;76.47;93388.64;1726595;82;21116;-54
2022/01/06 06:19:20;;;;;;;33.73;19.95;;;;;;;3.16;76.48;93388.52;1735176;81;21446;-54
2022/01/06 06:21:49;;;;;;;29.42;18.30;;;;;;;3.18;76.20;93394.28;1716116;82;21329;-54
2022/01/06 06:24:16;;;;;;;27.62;16.23;;;;;;;3.16;76.26;93387.16;1723773;81;21022;-55
2022/01/06 06:26:44;;;;;;;29.82;17.42;;;;;;;3.14;76.20;93394.98;1724138;82;20998;-54
2022/01/06 06:29:10;;;;;;;37.17;20.90;;;;;;;3.16;76.08;93387.94;1695098;82;22451;-55
2022/01/06 06:31:42;;;;;;;47.67;24.50;;;;;;;3.16;75.79;93393.37;1711818;82;21014;-53
2022/01/06 06:34:10;;;;;;;39.98;22.93;;;;;;;3.16;75.73;93400.74;1730312;82;22355;-54
2022/01/06 06:36:37;;;;;;;49.05;27.07;;;;;;;3.20;75.78;93410.94;1718329;82;21525;-54
2022/01/06 06:39:05;;;;;;;49.08;27.45;;;;;;;3.20;75.58;93400.81;1725426;82;21029;-54
2022/01/06 06:41:33;;;;;;;40.65;24.43;;;;;;;3.18;75.78;93411.94;1680599;82;21423;-55
2022/01/06 06:44:00;;;;;;;38.35;22.37;;;;;;;3.23;75.47;93413.52;1730853;82;20951;-53
2022/01/06 06:46:27;;;;;;;23.98;16.23;;;;;;;3.26;75.36;93412.66;1704643;82;21856;-53
2022/01/06 06:48:54;;;;;;;28.65;16.40;;;;;;;3.29;74.82;93413.76;1717978;82;20952;-54
2022/01/06 06:51:22;;;;;;;34.65;21.52;;;;;;;3.25;74.49;93418.54;1689859;83;21565;-54
2022/01/06 06:53:50;;;;;;;38.80;24.63;;;;;;;3.20;74.32;93416.37;1672388;85;21606;-54
2022/01/06 06:56:19;;;;;;;28.77;19.42;;;;;;;3.13;74.45;93418.69;1679035;84;21675;-54
2022/01/06 06:58:46;;;;;;;24.00;16.87;;;;;;;3.12;74.57;93414.45;1634647;85;22285;-55
2022/01/06 07:01:12;;;;;;;28.62;17.90;;;;;;;3.17;74.72;93415.27;1680405;83;21168;-55
2022/01/06 07:03:39;;;;;;;31.25;18.60;;;;;;;3.23;74.52;93412.17;1679073;84;21087;-54
2022/01/06 07:06:06;;;;;;;33.33;20.70;;;;;;;3.29;74.55;93415.12;1668046;83;21043;-55
2022/01/06 07:08:33;;;;;;;29.77;19.27;;;;;;;3.32;74.44;93427.83;1731024;81;21040;-54
2022/01/06 07:11:03;;;;;;;25.45;16.32;;;;;;;3.39;74.27;93436.55;1722074;80;21593;-53
2022/01/06 07:13:30;;;;;;;25.40;16.32;;;;;;;3.46;74.00;93422.73;1741246;80;20975;-54
2022/01/06 07:15:56;;;;;;;20.27;12.65;;;;;;;3.53;73.73;93433.41;1742211;80;21021;-54
2022/01/06 07:18:25;;;;;;;21.75;14.75;;;;;;;3.56;73.40;93419.72;1740663;80;21030;-53
2022/01/06 07:20:52;;;;;;;23.90;14.18;;;;;;;3.57;73.24;93430.76;1674602;83;21088;-54
2022/01/06 07:23:19;;;;;;;19.35;13.60;;;;;;;3.59;72.88;93432.44;1735533;81;21173;-55
2022/01/06 07:25:45;;;;;;;17.85;11.63;;;;;;;3.60;72.46;93435.91;1746395;80;21550;-54
2022/01/06 07:28:12;;;;;;;25.95;14.98;;;;;;;3.56;72.30;93429.23;1744867;80;21315;-55
2022/01/06 07:30:38;;;;;;;19.15;12.05;;;;;;;3.50;72.43;93425.52;1711103;83;21039;-54
2022/01/06 07:33:08;;;;;;;25.50;17.65;;;;;;;3.46;72.61;93434.22;1667853;83;21533;-54
2022/01/06 07:35:35;;;;;;;20.97;16.02;;;;;;;3.42;72.72;93434.92;1667515;84;21976;-55
2022/01/06 07:38:04;;;;;;;26.33;16.65;;;;;;;3.40;72.85;93440.04;1679999;83;21164;-56
2022/01/06 07:40:33;;;;;;;24.57;14.73;;;;;;;3.41;73.18;93442.30;1671856;84;21121;-54
2022/01/06 07:43:00;;;;;;;27.55;18.55;;;;;;;3.53;73.33;93443.67;1726906;81;21456;-55
2022/01/06 07:45:27;;;;;;;21.25;13.55;;;;;;;3.59;73.29;93430.30;1701228;82;21428;-54
2022/01/06 07:47:58;;;;;;;21.33;13.88;;;;;;;3.67;73.37;93435.09;1705217;81;21774;-55
2022/01/06 07:50:29;;;;;;;29.15;16.02;;;;;;;3.65;73.08;93422.53;1717665;81;21073;-55
2022/01/06 07:52:59;;;;;;;25.97;14.65;;;;;;;3.61;73.22;93434.12;1707818;82;21066;-54
2022/01/06 07:55:26;;;;;;;56.00;27.90;;;;;;;3.63;73.18;93435.03;1689414;83;21076;-56
2022/01/06 07:57:55;;;;;;;23.40;15.08;;;;;;;3.75;73.21;93441.86;1705147;82;20978;-55
2022/01/06 08:00:23;;;;;;;22.37;13.25;;;;;;;3.90;72.90;93438.09;1761643;80;21145;-56
2022/01/06 08:02:51;;;;;;;21.90;14.78;;;;;;;4.01;72.57;93433.06;1708672;82;21110;-56
2022/01/06 08:05:20;;;;;;;22.00;14.45;;;;;;;4.06;72.18;93442.80;1698406;81;21678;-55
2022/01/06 08:07:46;;;;;;;25.08;16.32;;;;;;;4.14;72.10;93430.51;1737313;80;21114;-55
2022/01/06 08:10:14;;;;;;;25.37;16.35;;;;;;;4.28;71.92;93432.75;1750644;80;21057;-55
2022/01/06 08:12:41;;;;;;;24.30;14.78;;;;;;;4.47;71.75;93444.00;1736433;80;21866;-54
2022/01/06 08:15:11;;;;;;;20.00;14.18;;;;;;;4.58;71.08;93452.56;1748124;80;20996;-55
2022/01/06 08:17:40;;;;;;;23.07;15.60;;;;;;;4.63;70.67;93460.78;1714843;82;21115;-54
2022/01/06 08:20:08;;;;;;;31.23;19.42;;;;;;;4.63;70.36;93468.33;1745008;81;21030;-57
2022/01/06 08:22:35;;;;;;;23.65;17.50;;;;;;;4.60;70.30;93452.88;1715497;82;21006;-55
2022/01/06 08:25:06;;;;;;;22.70;15.30;;;;;;;4.58;70.07;93455.28;1679418;83;21088;-55
2022/01/06 08:27:35;;;;;;;22.60;15.78;;;;;;;4.52;70.28;93453.55;1748632;80;21648;-55
2022/01/06 08:30:08;;;;;;;22.93;14.65;;;;;;;4.45;70.17;93453.18;1738595;80;21078;-55
2022/01/06 08:32:36;;;;;;;34.35;19.85;;;;;;;4.33;70.19;93463.52;1745512;80;20993;-54
2022/01/06 08:35:07;;;;;;;55.12;29.27;;;;;;;4.26;70.43;93472.50;1750884;80;21079;-55
2022/01/06 08:37:34;;;;;;;41.77;22.73;;;;;;;4.23;70.87;93480.19;1685720;82;21239;-55
2022/01/06 08:40:01;;;;;;;32.98;19.00;;;;;;;4.26;70.90;93497.75;1719261;80;22590;-55
2022/01/06 08:42:29;;;;;;;33.55;19.50;;;;;;;4.26;70.75;93497.75;1737608;80;21369;-59
2022/01/06 08:44:56;;;;;;;24.63;14.65;;;;;;;4.27;70.86;93500.63;1753024;80;21094;-57
2022/01/06 08:47:23;;;;;;;25.27;15.23;;;;;;;4.33;70.77;93521.27;1747116;80;21537;-53
2022/01/06 08:49:52;;;;;;;34.73;22.80;;;;;;;4.30;70.48;93530.31;1756352;80;21622;-56
2022/01/06 08:52:19;;;;;;;36.10;21.65;;;;;;;4.24;70.65;93533.42;1709857;82;20979;-54
2022/01/06 08:54:49;;;;;;;38.25;23.42;;;;;;;4.18;70.77;93529.70;1714353;80;21056;-57
2022/01/06 08:57:16;;;;;;;29.07;17.70;;;;;;;4.09;70.96;93526.27;1746409;80;21048;-54
2022/01/06 08:59:43;;;;;;;21.60;14.53;;;;;;;3.99;71.24;93536.89;1762975;80;21479;-57
2022/01/06 09:02:09;;;;;;;17.40;13.22;;;;;;;3.88;71.55;93536.44;1745650;80;21152;-53
2022/01/06 09:04:36;;;;;;;22.48;16.37;;;;;;;3.86;72.42;93538.83;1717391;81;21110;-54
2022/01/06 09:07:04;;;;;;;23.00;17.77;;;;;;;3.90;72.37;93534.66;1745427;80;21070;-54
2022/01/06 09:09:30;;;;;;;28.57;19.32;;;;;;;3.86;72.89;93532.03;1705293;81;21215;-57
2022/01/06 09:12:01;;;;;;;30.92;19.45;;;;;;;3.88;72.85;93530.25;1711510;82;21038;-54
2022/01/06 09:14:28;;;;;;;34.40;20.97;;;;;;;3.85;73.09;93527.78;1663350;83;21187;-53
2022/01/06 09:16:55;;;;;;;28.12;18.60;;;;;;;3.90;73.32;93528.60;1683258;83;21111;-54
2022/01/06 09:19:21;;;;;;;26.00;16.57;;;;;;;3.99;73.21;93525.23;1680226;83;21564;-55
2022/01/06 09:21:48;;;;;;;28.95;17.95;;;;;;;4.02;73.15;93525.14;1686004;83;21022;-55
2022/01/06 09:24:15;;;;;;;23.18;17.05;;;;;;;4.08;73.15;93524.75;1684040;84;21103;-54
2022/01/06 09:26:41;;;;;;;19.70;14.68;;;;;;;4.06;73.28;93530.48;1665476;83;21912;-54
2022/01/06 09:29:14;;;;;;;13.65;10.58;;;;;;;4.03;73.34;93529.37;1658240;84;21131;-56
2022/01/06 09:31:42;;;;;;;14.73;10.53;;;;;;;3.97;73.21;93533.84;1647893;83;21056;-55
2022/01/06 09:34:10;;;;;;;18.70;12.78;;;;;;;3.93;73.58;93534.56;1681860;83;21528;-56
2022/01/06 09:36:38;;;;;;;19.73;14.78;;;;;;;3.92;73.68;93532.26;1689099;83;21046;-55
2022/01/06 09:39:06;;;;;;;14.98;12.05;;;;;;;3.92;73.80;93545.28;1657800;83;21159;-55
2022/01/06 09:41:34;;;;;;;20.43;15.50;;;;;;;3.96;73.87;93549.23;1675267;84;21570;-56
2022/01/06 09:44:01;;;;;;;16.70;13.03;;;;;;;3.96;73.83;93545.93;1670386;83;21007;-59
2022/01/06 09:46:29;;;;;;;16.27;12.95;;;;;;;3.91;73.92;93547.80;1659352;84;21500;-56
2022/01/06 09:48:57;;;;;;;24.37;16.95;;;;;;;3.87;74.26;93547.77;1676393;84;21124;-54
2022/01/06 09:51:24;;;;;;;24.87;16.75;;;;;;;3.94;74.60;93540.16;1658098;84;21227;-55
2022/01/06 09:53:53;;;;;;;19.75;14.45;;;;;;;4.07;74.61;93540.16;1732038;81;21486;-63
2022/01/06 09:56:22;;;;;;;16.87;13.40;;;;;;;4.14;74.05;93544.80;1772610;80;21030;-60
2022/01/06 09:58:49;;;;;;;19.75;15.48;;;;;;;4.09;73.84;93546.68;1777678;80;20978;-60
2022/01/06 10:01:16;;;;;;;28.57;20.70;;;;;;;4.09;74.17;93534.44;1763591;80;21162;-49
2022/01/06 10:03:45;;;;;;;23.38;17.32;;;;;;;4.17;74.45;93537.13;1736266;82;21120;-53
2022/01/06 10:06:17;;;;;;;20.48;14.95;;;;;;;4.25;73.94;93539.77;1702080;82;21396;-52
2022/01/06 10:08:56;;;;;;;19.07;14.00;;;;;;;4.24;74.00;93532.80;1746694;81;21168;-54
2022/01/06 10:11:26;;;;;;;14.95;11.60;;;;;;;4.24;73.78;93539.61;1725007;81;20992;-52
2022/01/06 10:14:01;;;;;;;12.78;10.70;;;;;;;4.18;73.65;93538.64;1722686;80;20968;-53
2022/01/06 10:16:31;;;;;;;11.93;10.18;;;;;;;4.17;73.66;93542.56;1685707;83;21195;-52
2022/01/06 10:19:11;;;;;;;10.48;9.38;;;;;;;4.14;73.67;93538.00;1732380;82;21426;-52
2022/01/06 10:21:47;;;;;;;26.30;17.55;;;;;;;4.18;73.59;93545.45;1736593;81;21013;-52
2022/01/06 10:24:17;;;;;;;22.15;15.80;;;;;;;4.22;73.82;93546.09;1736635;82;21004;-53
2022/01/06 10:27:04;;;;;;;26.40;19.42;;;;;;;4.28;73.83;93550.40;1695007;81;21067;-53
2022/01/06 10:29:38;;;;;;;17.57;14.15;;;;;;;4.41;73.69;93561.44;1712117;81;21093;-54
2022/01/06 10:32:15;;;;;;;14.07;11.85;;;;;;;4.49;73.12;93559.26;1727718;81;21057;-54
2022/01/06 10:34:49;;;;;;;20.92;17.07;;;;;;;4.50;72.97;93557.47;1755067;80;21013;-52
2022/01/06 10:37:34;;;;;;;16.73;14.90;;;;;;;4.46;72.91;93556.80;1721654;81;21241;-52
2022/01/06 10:40:05;;;;;;;15.48;13.50;;;;;;;4.50;72.85;93552.03;1734023;80;20935;-54
2022/01/06 10:42:34;;;;;;;15.10;12.28;;;;;;;4.48;72.86;93555.80;1730426;82;21184;-52
2022/01/06 10:45:09;;;;;;;13.80;11.97;;;;;;;4.54;73.07;93562.78;1746271;81;21113;-53
2022/01/06 10:47:46;;;;;;;38.33;24.12;;;;;;;4.61;72.81;93568.77;1747438;80;21034;-52
2022/01/06 10:50:29;;;;;;;27.30;20.45;;;;;;;4.60;72.46;93567.25;1732226;81;21627;-53
2022/01/06 10:52:57;;;;;;;;;;;;;;;4.53;72.58;93562.63;1747186;80;21006;-52
2022/01/06 10:55:31;;;;;;;53.73;34.78;;;;;;;4.42;72.96;93567.05;1731865;81;21775;-54
2022/01/06 10:58:11;;;;;;;74.77;42.23;;;;;;;4.39;73.20;93559.75;1737377;80;21019;-54
2022/01/06 11:00:44;;;;;;;100.38;68.78;;;;;;;4.44;73.37;93561.17;1742911;80;21077;-53
2022/01/06 11:03:20;;;;;;;50.23;36.08;;;;;;;4.50;73.48;93557.47;1724297;81;21108;-53
2022/01/06 11:05:53;;;;;;;60.52;43.73;;;;;;;4.49;73.02;93558.67;1741376;81;21093;-54
2022/01/06 11:08:26;;;;;;;59.40;41.42;;;;;;;4.41;73.28;93549.19;1753995;80;21093;-51
2022/01/06 11:13:40;;;;;;;41.23;28.30;;;;;;;4.52;73.56;93542.82;1747089;80;21037;-53
2022/01/06 11:16:07;;;;;;;36.28;27.32;;;;;;;4.59;73.64;93545.30;1763942;80;21011;-54
2022/01/06 11:18:35;;;;;;;26.93;23.65;;;;;;;4.64;73.37;93546.11;1762891;80;21588;-53
2022/01/06 11:21:13;;;;;;;24.77;20.68;;;;;;;4.59;73.28;93547.28;1750420;80;21147;-51
2022/01/06 11:23:42;;;;;;;27.05;21.95;;;;;;;4.55;73.35;93548.75;1722410;81;38530;-52
2022/01/06 11:26:21;;;;;;;28.15;23.25;;;;;;;4.50;73.54;93562.14;1751702;80;20985;-52
2022/01/06 11:29:00;;;;;;;36.15;28.05;;;;;;;4.52;73.83;93559.16;1756889;80;21594;-51
2022/01/06 11:31:31;;;;;;;37.17;27.20;;;;;;;4.59;74.00;93550.75;1757303;81;21521;-52
2022/01/06 11:34:17;;;;;;;38.50;27.20;;;;;;;4.67;73.64;93554.79;1717590;82;21225;-51
2022/01/06 11:36:46;;;;;;;47.25;28.25;;;;;;;4.66;73.46;93562.80;1765332;80;21129;-52
2022/01/06 11:39:30;;;;;;;60.15;34.83;;;;;;;4.59;73.69;93558.92;1716926;80;21033;-53
2022/01/06 11:42:01;;;;;;;60.40;36.88;;;;;;;4.61;73.74;93558.50;1736160;81;20990;-53
2022/01/06 11:44:31;;;;;;;48.90;28.35;;;;;;;4.58;73.31;93575.72;1758657;80;21046;-53
2022/01/06 11:47:00;;;;;;;45.88;26.93;;;;;;;4.51;73.18;93576.70;1752737;80;21809;-53
2022/01/06 11:49:41;;;;;;;49.05;30.00;;;;;;;4.51;73.17;93573.97;1732022;80;20974;-53